PWSweather.com
Personal Weather Stations
Station Observations
WAIROAHB
Wairoa, Northern Hawkes Bay -NZ 4108

WairoaNorthern Hawkes Bay -NZ 4108

Lat: -39.04516934, Lon: 177.4263989

Elevation: 156

Station Type: WS3083

http://wairoa.net/weather/index.htm

High Low Average
Temperature 80.2°F26.8°C 55.2°F12.9°C 68.7°F20.4°C
Dew Point 60.7°F15.9°C 53.4°F11.9°C 57.1°F13.9°C
Winds 20.6 mph 33.2 kmh Calm Calm 5.0 mph WSW8.0 kmh WSW
Wind Gusts 29.8 mph48.0 kmh -- 10.0 mph16.1 kmh
Humidity 99% 44% 70%
Pressure 29.70 in1005.8 mb 29.53 in1000.0 mb -
Precipitation 0.00 in0.0 mm - -
Hour Temp Dew Point Humidity Winds Wind Gusts Pressure Precip Precip Rate Daily Precip Total
12:00 AM 60.8°F16.0°C 58.8°F14.9°C 93% Calm Calm -- 29.69 in1005.4 mb 0.00 in0.0 mm 0.00 in0.0 mm 0.00 in0.0 mm
12:10 AM 60.4°F15.8°C 59.0°F15.0°C 95% Calm Calm 0.7 mph1.1 kmh 29.69 in1005.4 mb 0.00 in0.0 mm 0.00 in0.0 mm 0.00 in0.0 mm
12:20 AM 60.3°F15.7°C 59.1°F15.1°C 96% Calm Calm 3.1 mph5.0 kmh 29.69 in1005.4 mb 0.00 in0.0 mm 0.00 in0.0 mm 0.00 in0.0 mm
12:30 AM 59.7°F15.4°C 58.6°F14.8°C 96% 1.6 mph NW2.6 kmh NW 3.1 mph5.0 kmh 29.68 in1005.1 mb 0.00 in0.0 mm 0.00 in0.0 mm 0.00 in0.0 mm
12:40 AM 59.5°F15.3°C 58.7°F14.8°C 97% 3.1 mph NW5.0 kmh NW 4.5 mph7.2 kmh 29.68 in1005.1 mb 0.00 in0.0 mm 0.00 in0.0 mm 0.00 in0.0 mm
12:50 AM 59.5°F15.3°C 59.0°F15.0°C 98% 1.6 mph NW2.6 kmh NW 4.5 mph7.2 kmh 29.68 in1005.1 mb 0.00 in0.0 mm 0.00 in0.0 mm 0.00 in0.0 mm
01:00 AM 59.2°F15.1°C 58.6°F14.8°C 98% 2.2 mph NW3.5 kmh NW 3.8 mph6.1 kmh 29.68 in1005.1 mb 0.00 in0.0 mm 0.00 in0.0 mm 0.00 in0.0 mm
01:10 AM 59.2°F15.1°C 58.9°F14.9°C 99% 1.6 mph NW2.6 kmh NW 3.8 mph6.1 kmh 29.68 in1005.1 mb 0.00 in0.0 mm 0.00 in0.0 mm 0.00 in0.0 mm
01:20 AM 59.0°F15.0°C 58.7°F14.8°C 99% Calm Calm 3.1 mph5.0 kmh 29.68 in1005.1 mb 0.00 in0.0 mm 0.00 in0.0 mm 0.00 in0.0 mm
01:30 AM 58.6°F14.8°C 58.4°F14.7°C 99% Calm Calm 3.1 mph5.0 kmh 29.68 in1005.1 mb 0.00 in0.0 mm 0.00 in0.0 mm 0.00 in0.0 mm
01:40 AM 58.6°F14.8°C 58.4°F14.7°C 99% 1.6 mph NNW2.6 kmh NNW 3.1 mph5.0 kmh 29.68 in1005.1 mb 0.00 in0.0 mm 0.00 in0.0 mm 0.00 in0.0 mm
01:50 AM 58.5°F14.7°C 58.2°F14.6°C 99% 0.7 mph NW1.1 kmh NW 3.8 mph6.1 kmh 29.68 in1005.1 mb 0.00 in0.0 mm 0.00 in0.0 mm 0.00 in0.0 mm
02:00 AM 58.1°F14.5°C 57.8°F14.3°C 99% 1.6 mph NW2.6 kmh NW 3.1 mph5.0 kmh 29.68 in1005.1 mb 0.00 in0.0 mm 0.00 in0.0 mm 0.00 in0.0 mm
02:10 AM 57.9°F14.4°C 57.7°F14.3°C 99% Calm Calm 2.2 mph3.5 kmh 29.67 in1004.7 mb 0.00 in0.0 mm 0.00 in0.0 mm 0.00 in0.0 mm
02:20 AM 57.9°F14.4°C 57.7°F14.3°C 99% 2.2 mph NNW3.5 kmh NNW 3.1 mph5.0 kmh 29.66 in1004.4 mb 0.00 in0.0 mm 0.00 in0.0 mm 0.00 in0.0 mm
02:30 AM 57.7°F14.3°C 57.5°F14.2°C 99% 2.2 mph N3.5 kmh N 3.8 mph6.1 kmh 29.66 in1004.4 mb 0.00 in0.0 mm 0.00 in0.0 mm 0.00 in0.0 mm
02:40 AM 57.6°F14.2°C 57.3°F14.1°C 99% 2.2 mph NW3.5 kmh NW 4.5 mph7.2 kmh 29.66 in1004.4 mb 0.00 in0.0 mm 0.00 in0.0 mm 0.00 in0.0 mm
02:50 AM 57.2°F14.0°C 56.9°F13.8°C 99% 2.2 mph NW3.5 kmh NW 3.8 mph6.1 kmh 29.65 in1004.1 mb 0.00 in0.0 mm 0.00 in0.0 mm 0.00 in0.0 mm
03:00 AM 57.0°F13.9°C 56.8°F13.8°C 99% 2.2 mph NW3.5 kmh NW 4.5 mph7.2 kmh 29.65 in1004.1 mb 0.00 in0.0 mm 0.00 in0.0 mm 0.00 in0.0 mm
03:10 AM 56.7°F13.7°C 56.4°F13.6°C 99% Calm Calm 4.5 mph7.2 kmh 29.65 in1004.1 mb 0.00 in0.0 mm 0.00 in0.0 mm 0.00 in0.0 mm
03:20 AM 56.5°F13.6°C 56.2°F13.4°C 99% 1.6 mph NNW2.6 kmh NNW 3.1 mph5.0 kmh 29.65 in1004.1 mb 0.00 in0.0 mm 0.00 in0.0 mm 0.00 in0.0 mm
03:30 AM 56.1°F13.4°C 55.9°F13.3°C 99% Calm Calm 3.1 mph5.0 kmh 29.65 in1004.1 mb 0.00 in0.0 mm 0.00 in0.0 mm 0.00 in0.0 mm
03:40 AM 55.9°F13.3°C 55.7°F13.2°C 99% Calm Calm 1.6 mph2.6 kmh 29.66 in1004.4 mb 0.00 in0.0 mm 0.00 in0.0 mm 0.00 in0.0 mm
03:50 AM 55.9°F13.3°C 55.7°F13.2°C 99% 1.6 mph N2.6 kmh N 3.1 mph5.0 kmh 29.65 in1004.1 mb 0.00 in0.0 mm 0.00 in0.0 mm 0.00 in0.0 mm
04:00 AM 55.9°F13.3°C 55.7°F13.2°C 99% Calm Calm 3.1 mph5.0 kmh 29.66 in1004.4 mb 0.00 in0.0 mm 0.00 in0.0 mm 0.00 in0.0 mm
04:10 AM 55.8°F13.2°C 55.5°F13.1°C 99% Calm Calm 3.1 mph5.0 kmh 29.66 in1004.4 mb 0.00 in0.0 mm 0.00 in0.0 mm 0.00 in0.0 mm
04:20 AM 55.6°F13.1°C 55.3°F12.9°C 99% Calm Calm 2.2 mph3.5 kmh 29.67 in1004.7 mb 0.00 in0.0 mm 0.00 in0.0 mm 0.00 in0.0 mm
04:30 AM 55.4°F13.0°C 55.1°F12.8°C 99% 2.2 mph N3.5 kmh N 3.1 mph5.0 kmh 29.67 in1004.7 mb 0.00 in0.0 mm 0.00 in0.0 mm 0.00 in0.0 mm
04:40 AM 55.4°F13.0°C 55.1°F12.8°C 99% 0.7 mph NW1.1 kmh NW 3.8 mph6.1 kmh 29.68 in1005.1 mb 0.00 in0.0 mm 0.00 in0.0 mm 0.00 in0.0 mm
04:50 AM 55.4°F13.0°C 55.1°F12.8°C 99% 3.1 mph NW5.0 kmh NW 4.5 mph7.2 kmh 29.67 in1004.7 mb 0.00 in0.0 mm 0.00 in0.0 mm 0.00 in0.0 mm
05:00 AM 55.2°F12.9°C 54.4°F12.4°C 97% Calm Calm 4.5 mph7.2 kmh 29.68 in1005.1 mb 0.00 in0.0 mm 0.00 in0.0 mm 0.00 in0.0 mm
05:10 AM 55.2°F12.9°C 54.4°F12.4°C 97% 3.1 mph N5.0 kmh N 3.8 mph6.1 kmh 29.68 in1005.1 mb 0.00 in0.0 mm 0.00 in0.0 mm 0.00 in0.0 mm
05:20 AM 55.2°F12.9°C 54.4°F12.4°C 97% 1.6 mph NW2.6 kmh NW 3.8 mph6.1 kmh 29.68 in1005.1 mb 0.00 in0.0 mm 0.00 in0.0 mm 0.00 in0.0 mm
05:30 AM 55.6°F13.1°C 55.3°F12.9°C 99% 2.2 mph N3.5 kmh N 3.1 mph5.0 kmh 29.69 in1005.4 mb 0.00 in0.0 mm 0.00 in0.0 mm 0.00 in0.0 mm
05:40 AM 56.1°F13.4°C 55.9°F13.3°C 99% 3.8 mph NW6.1 kmh NW 7.6 mph12.2 kmh 29.69 in1005.4 mb 0.00 in0.0 mm 0.00 in0.0 mm 0.00 in0.0 mm
05:50 AM 56.5°F13.6°C 56.2°F13.4°C 99% 3.1 mph NW5.0 kmh NW 6.9 mph11.1 kmh 29.69 in1005.4 mb 0.00 in0.0 mm 0.00 in0.0 mm 0.00 in0.0 mm
06:00 AM 56.8°F13.8°C 56.3°F13.5°C 98% 3.1 mph NW5.0 kmh NW 6.0 mph9.7 kmh 29.68 in1005.1 mb 0.00 in0.0 mm 0.00 in0.0 mm 0.00 in0.0 mm
06:10 AM 57.0°F13.9°C 56.2°F13.4°C 97% 4.5 mph NNW7.2 kmh NNW 6.0 mph9.7 kmh 29.68 in1005.1 mb 0.00 in0.0 mm 0.00 in0.0 mm 0.00 in0.0 mm
06:20 AM 57.0°F13.9°C 56.2°F13.4°C 97% 3.1 mph NW5.0 kmh NW 5.4 mph8.7 kmh 29.69 in1005.4 mb 0.00 in0.0 mm 0.00 in0.0 mm 0.00 in0.0 mm
06:30 AM 57.6°F14.2°C 56.4°F13.6°C 96% 3.1 mph NW5.0 kmh NW 5.4 mph8.7 kmh 29.69 in1005.4 mb 0.00 in0.0 mm 0.00 in0.0 mm 0.00 in0.0 mm
06:40 AM 58.1°F14.5°C 57.0°F13.9°C 96% 3.8 mph NW6.1 kmh NW 6.0 mph9.7 kmh 29.69 in1005.4 mb 0.00 in0.0 mm 0.00 in0.0 mm 0.00 in0.0 mm
06:50 AM 59.5°F15.3°C 57.8°F14.3°C 94% 2.2 mph NW3.5 kmh NW 6.0 mph9.7 kmh 29.68 in1005.1 mb 0.00 in0.0 mm 0.00 in0.0 mm 0.00 in0.0 mm
07:00 AM 62.2°F16.8°C 58.0°F14.4°C 86% 3.8 mph NNW6.1 kmh NNW 6.9 mph11.1 kmh 29.68 in1005.1 mb 0.00 in0.0 mm 0.00 in0.0 mm 0.00 in0.0 mm
07:10 AM 64.6°F18.1°C 57.2°F14.0°C 77% 4.5 mph N7.2 kmh N 6.9 mph11.1 kmh 29.68 in1005.1 mb 0.00 in0.0 mm 0.00 in0.0 mm 0.00 in0.0 mm
07:20 AM 65.7°F18.7°C 56.0°F13.3°C 71% 3.8 mph N6.1 kmh N 7.6 mph12.2 kmh 29.70 in1005.8 mb 0.00 in0.0 mm 0.00 in0.0 mm 0.00 in0.0 mm
07:30 AM 68.4°F20.2°C 56.2°F13.4°C 65% 2.2 mph N3.5 kmh N 9.8 mph15.8 kmh 29.70 in1005.8 mb 0.00 in0.0 mm 0.00 in0.0 mm 0.00 in0.0 mm
07:40 AM 71.4°F21.9°C 57.3°F14.1°C 61% Calm Calm 5.4 mph8.7 kmh 29.70 in1005.8 mb 0.00 in0.0 mm 0.00 in0.0 mm 0.00 in0.0 mm
07:50 AM 74.7°F23.7°C 56.9°F13.8°C 54% 3.1 mph N5.0 kmh N 5.4 mph8.7 kmh 29.70 in1005.8 mb 0.00 in0.0 mm 0.00 in0.0 mm 0.00 in0.0 mm
08:00 AM 70.9°F21.6°C 55.4°F13.0°C 58% 1.6 mph NNW2.6 kmh NNW 6.0 mph9.7 kmh 29.69 in1005.4 mb 0.00 in0.0 mm 0.00 in0.0 mm 0.00 in0.0 mm
08:10 AM 70.3°F21.3°C 53.4°F11.9°C 55% 5.4 mph NNW8.7 kmh NNW 6.9 mph11.1 kmh 29.68 in1005.1 mb 0.00 in0.0 mm 0.00 in0.0 mm 0.00 in0.0 mm
08:20 AM 69.8°F21.0°C 54.9°F12.7°C 59% 4.5 mph NNW7.2 kmh NNW 9.2 mph14.8 kmh 29.68 in1005.1 mb 0.00 in0.0 mm 0.00 in0.0 mm 0.00 in0.0 mm
08:30 AM 70.3°F21.3°C 55.8°F13.2°C 60% 3.8 mph NNW6.1 kmh NNW 10.7 mph17.2 kmh 29.67 in1004.7 mb 0.00 in0.0 mm 0.00 in0.0 mm 0.00 in0.0 mm
08:40 AM 70.2°F21.2°C 55.2°F12.9°C 59% 3.8 mph N6.1 kmh N 10.7 mph17.2 kmh 29.66 in1004.4 mb 0.00 in0.0 mm 0.00 in0.0 mm 0.00 in0.0 mm
08:50 AM 69.8°F21.0°C 55.3°F12.9°C 60% 5.4 mph NW8.7 kmh NW 9.2 mph14.8 kmh 29.66 in1004.4 mb 0.00 in0.0 mm 0.00 in0.0 mm 0.00 in0.0 mm
09:00 AM 71.1°F21.7°C 53.6°F12.0°C 54% 5.4 mph NW8.7 kmh NW 9.8 mph15.8 kmh 29.66 in1004.4 mb 0.00 in0.0 mm 0.00 in0.0 mm 0.00 in0.0 mm
09:10 AM 72.0°F22.2°C 53.9°F12.2°C 53% 3.1 mph NW5.0 kmh NW 9.8 mph15.8 kmh 29.66 in1004.4 mb 0.00 in0.0 mm 0.00 in0.0 mm 0.00 in0.0 mm
09:20 AM 72.0°F22.2°C 54.4°F12.4°C 54% 0.7 mph NW1.1 kmh NW 8.3 mph13.4 kmh 29.67 in1004.7 mb 0.00 in0.0 mm 0.00 in0.0 mm 0.00 in0.0 mm
09:30 AM 73.2°F22.9°C 54.6°F12.6°C 52% 6.0 mph NW9.7 kmh NW 8.3 mph13.4 kmh 29.67 in1004.7 mb 0.00 in0.0 mm 0.00 in0.0 mm 0.00 in0.0 mm
09:40 AM 72.0°F22.2°C 54.4°F12.4°C 54% 6.0 mph NNW9.7 kmh NNW 9.2 mph14.8 kmh 29.67 in1004.7 mb 0.00 in0.0 mm 0.00 in0.0 mm 0.00 in0.0 mm
09:50 AM 73.8°F23.2°C 55.6°F13.1°C 53% 5.4 mph NW8.7 kmh NW 8.3 mph13.4 kmh 29.68 in1005.1 mb 0.00 in0.0 mm 0.00 in0.0 mm 0.00 in0.0 mm
10:00 AM 73.4°F23.0°C 54.2°F12.3°C 51% 4.5 mph NW7.2 kmh NW 9.2 mph14.8 kmh 29.67 in1004.7 mb 0.00 in0.0 mm 0.00 in0.0 mm 0.00 in0.0 mm
10:10 AM 72.7°F22.6°C 54.6°F12.6°C 53% 4.5 mph NW7.2 kmh NW 9.2 mph14.8 kmh 29.68 in1005.1 mb 0.00 in0.0 mm 0.00 in0.0 mm 0.00 in0.0 mm
10:20 AM 72.7°F22.6°C 55.6°F13.1°C 55% 0.7 mph N1.1 kmh N 8.3 mph13.4 kmh 29.68 in1005.1 mb 0.00 in0.0 mm 0.00 in0.0 mm 0.00 in0.0 mm
10:30 AM 73.6°F23.1°C 55.9°F13.3°C 54% 3.8 mph N6.1 kmh N 6.9 mph11.1 kmh 29.66 in1004.4 mb 0.00 in0.0 mm 0.00 in0.0 mm 0.00 in0.0 mm
10:40 AM 73.9°F23.3°C 56.3°F13.5°C 54% 3.8 mph N6.1 kmh N 7.6 mph12.2 kmh 29.66 in1004.4 mb 0.00 in0.0 mm 0.00 in0.0 mm 0.00 in0.0 mm
10:50 AM 73.8°F23.2°C 56.6°F13.7°C 55% 8.3 mph NNW13.4 kmh NNW 10.7 mph17.2 kmh 29.65 in1004.1 mb 0.00 in0.0 mm 0.00 in0.0 mm 0.00 in0.0 mm
11:00 AM 73.9°F23.3°C 58.3°F14.6°C 58% 4.5 mph NNW7.2 kmh NNW 10.7 mph17.2 kmh 29.65 in1004.1 mb 0.00 in0.0 mm 0.00 in0.0 mm 0.00 in0.0 mm
11:10 AM 75.0°F23.9°C 58.3°F14.6°C 56% 8.3 mph NW13.4 kmh NW 13.0 mph20.9 kmh 29.65 in1004.1 mb 0.00 in0.0 mm 0.00 in0.0 mm 0.00 in0.0 mm
11:20 AM 75.4°F24.1°C 57.1°F13.9°C 53% 6.0 mph NW9.7 kmh NW 18.3 mph29.5 kmh 29.64 in1003.7 mb 0.00 in0.0 mm 0.00 in0.0 mm 0.00 in0.0 mm
11:30 AM 76.3°F24.6°C 57.9°F14.4°C 53% 10.7 mph NNW17.2 kmh NNW 20.6 mph33.2 kmh 29.65 in1004.1 mb 0.00 in0.0 mm 0.00 in0.0 mm 0.00 in0.0 mm
11:40 AM 75.6°F24.2°C 57.8°F14.3°C 54% 13.0 mph NW20.9 kmh NW 19.0 mph30.6 kmh 29.64 in1003.7 mb 0.00 in0.0 mm 0.00 in0.0 mm 0.00 in0.0 mm
11:50 AM 76.3°F24.6°C 57.4°F14.1°C 52% 7.6 mph NW12.2 kmh NW 19.7 mph31.7 kmh 29.63 in1003.4 mb 0.00 in0.0 mm 0.00 in0.0 mm 0.00 in0.0 mm
12:00 PM 76.1°F24.5°C 57.2°F14.0°C 52% 6.0 mph NW9.7 kmh NW 22.1 mph35.6 kmh 29.64 in1003.7 mb 0.00 in0.0 mm 0.00 in0.0 mm 0.00 in0.0 mm
12:10 PM 76.6°F24.8°C 58.8°F14.9°C 54% 6.9 mph NW11.1 kmh NW 15.2 mph24.5 kmh 29.63 in1003.4 mb 0.00 in0.0 mm 0.00 in0.0 mm 0.00 in0.0 mm
12:20 PM 76.6°F24.8°C 58.3°F14.6°C 53% 3.8 mph NW6.1 kmh NW 16.8 mph27.0 kmh 29.62 in1003.0 mb 0.00 in0.0 mm 0.00 in0.0 mm 0.00 in0.0 mm
12:30 PM 76.5°F24.7°C 58.6°F14.8°C 54% 4.5 mph NW7.2 kmh NW 16.8 mph27.0 kmh 29.62 in1003.0 mb 0.00 in0.0 mm 0.00 in0.0 mm 0.00 in0.0 mm
12:40 PM 77.2°F25.1°C 57.7°F14.3°C 51% 5.4 mph NW8.7 kmh NW 13.6 mph21.9 kmh 29.62 in1003.0 mb 0.00 in0.0 mm 0.00 in0.0 mm 0.00 in0.0 mm
12:50 PM 78.3°F25.7°C 58.1°F14.5°C 50% 6.0 mph N9.7 kmh N 15.9 mph25.6 kmh 29.62 in1003.0 mb 0.00 in0.0 mm 0.00 in0.0 mm 0.00 in0.0 mm
01:00 PM 78.1°F25.6°C 57.4°F14.1°C 49% 8.3 mph NW13.4 kmh NW 16.8 mph27.0 kmh 29.61 in1002.7 mb 0.00 in0.0 mm 0.00 in0.0 mm 0.00 in0.0 mm
01:10 PM 79.0°F26.1°C 57.1°F13.9°C 47% 11.4 mph N18.3 kmh N 19.0 mph30.6 kmh 29.61 in1002.7 mb 0.00 in0.0 mm 0.00 in0.0 mm 0.00 in0.0 mm
01:20 PM 78.8°F26.0°C 56.9°F13.8°C 47% 10.7 mph NW17.2 kmh NW 18.3 mph29.5 kmh 29.60 in1002.4 mb 0.00 in0.0 mm 0.00 in0.0 mm 0.00 in0.0 mm
01:30 PM 79.2°F26.2°C 57.2°F14.0°C 47% 9.8 mph NW15.8 kmh NW 21.3 mph34.3 kmh 29.60 in1002.4 mb 0.00 in0.0 mm 0.00 in0.0 mm 0.00 in0.0 mm
01:40 PM 79.3°F26.3°C 56.8°F13.8°C 46% 9.8 mph NW15.8 kmh NW 17.4 mph28.0 kmh 29.59 in1002.0 mb 0.00 in0.0 mm 0.00 in0.0 mm 0.00 in0.0 mm
01:50 PM 79.2°F26.2°C 56.6°F13.7°C 46% 9.2 mph NW14.8 kmh NW 23.5 mph37.8 kmh 29.59 in1002.0 mb 0.00 in0.0 mm 0.00 in0.0 mm 0.00 in0.0 mm
02:00 PM 78.8°F26.0°C 57.5°F14.2°C 48% 6.9 mph NW11.1 kmh NW 20.6 mph33.2 kmh 29.59 in1002.0 mb 0.00 in0.0 mm 0.00 in0.0 mm 0.00 in0.0 mm
02:10 PM 80.1°F26.7°C 59.2°F15.1°C 49% 13.6 mph NW21.9 kmh NW 18.3 mph29.5 kmh 29.58 in1001.7 mb 0.00 in0.0 mm 0.00 in0.0 mm 0.00 in0.0 mm
02:20 PM 79.3°F26.3°C 57.4°F14.1°C 47% 18.3 mph NW29.5 kmh NW 25.9 mph41.7 kmh 29.57 in1001.4 mb 0.00 in0.0 mm 0.00 in0.0 mm 0.00 in0.0 mm
02:30 PM 78.4°F25.8°C 59.4°F15.2°C 52% 15.2 mph NW24.5 kmh NW 24.4 mph39.3 kmh 29.58 in1001.7 mb 0.00 in0.0 mm 0.00 in0.0 mm 0.00 in0.0 mm
02:40 PM 78.1°F25.6°C 58.5°F14.7°C 51% 19.0 mph NW30.6 kmh NW 27.3 mph43.9 kmh 29.58 in1001.7 mb 0.00 in0.0 mm 0.00 in0.0 mm 0.00 in0.0 mm
02:50 PM 79.0°F26.1°C 59.3°F15.2°C 51% 19.0 mph NW30.6 kmh NW 26.6 mph42.8 kmh 29.58 in1001.7 mb 0.00 in0.0 mm 0.00 in0.0 mm 0.00 in0.0 mm
03:00 PM 79.2°F26.2°C 59.0°F15.0°C 50% 9.2 mph NW14.8 kmh NW 28.2 mph45.4 kmh 29.58 in1001.7 mb 0.00 in0.0 mm 0.00 in0.0 mm 0.00 in0.0 mm
03:10 PM 78.8°F26.0°C 58.6°F14.8°C 50% 13.0 mph NW20.9 kmh NW 22.8 mph36.7 kmh 29.59 in1002.0 mb 0.00 in0.0 mm 0.00 in0.0 mm 0.00 in0.0 mm
03:20 PM 78.6°F25.9°C 59.0°F15.0°C 51% 16.8 mph NW27.0 kmh NW 25.9 mph41.7 kmh 29.59 in1002.0 mb 0.00 in0.0 mm 0.00 in0.0 mm 0.00 in0.0 mm
03:30 PM 79.3°F26.3°C 58.6°F14.8°C 49% 10.7 mph WNW17.2 kmh WNW 26.6 mph42.8 kmh 29.58 in1001.7 mb 0.00 in0.0 mm 0.00 in0.0 mm 0.00 in0.0 mm
03:40 PM 79.0°F26.1°C 58.8°F14.9°C 50% 16.8 mph NW27.0 kmh NW 22.8 mph36.7 kmh 29.58 in1001.7 mb 0.00 in0.0 mm 0.00 in0.0 mm 0.00 in0.0 mm
03:50 PM 79.3°F26.3°C 59.1°F15.1°C 50% 13.0 mph NNW20.9 kmh NNW 25.1 mph40.4 kmh 29.57 in1001.4 mb 0.00 in0.0 mm 0.00 in0.0 mm 0.00 in0.0 mm
04:00 PM 80.2°F26.8°C 59.4°F15.2°C 49% 12.1 mph NNW19.5 kmh NNW 22.8 mph36.7 kmh 29.59 in1002.0 mb 0.00 in0.0 mm 0.00 in0.0 mm 0.00 in0.0 mm
04:10 PM 79.2°F26.2°C 59.0°F15.0°C 50% 20.6 mph WNW33.2 kmh WNW 28.2 mph45.4 kmh 29.58 in1001.7 mb 0.00 in0.0 mm 0.00 in0.0 mm 0.00 in0.0 mm
04:20 PM 78.6°F25.9°C 60.1°F15.6°C 53% 13.0 mph NW20.9 kmh NW 24.4 mph39.3 kmh 29.57 in1001.4 mb 0.00 in0.0 mm 0.00 in0.0 mm 0.00 in0.0 mm
04:30 PM 79.0°F26.1°C 59.3°F15.2°C 51% 10.7 mph NNW17.2 kmh NNW 22.1 mph35.6 kmh 29.57 in1001.4 mb 0.00 in0.0 mm 0.00 in0.0 mm 0.00 in0.0 mm
04:40 PM 79.9°F26.6°C 60.7°F15.9°C 52% 9.2 mph NW14.8 kmh NW 18.3 mph29.5 kmh 29.57 in1001.4 mb 0.00 in0.0 mm 0.00 in0.0 mm 0.00 in0.0 mm
04:50 PM 79.5°F26.4°C 60.4°F15.8°C 52% 12.1 mph NNW19.5 kmh NNW 19.0 mph30.6 kmh 29.55 in1000.7 mb 0.00 in0.0 mm 0.00 in0.0 mm 0.00 in0.0 mm
05:00 PM 78.4°F25.8°C 59.9°F15.5°C 53% 9.2 mph N14.8 kmh N 19.0 mph30.6 kmh 29.57 in1001.4 mb 0.00 in0.0 mm 0.00 in0.0 mm 0.00 in0.0 mm
05:10 PM 78.3°F25.7°C 60.3°F15.7°C 54% 7.6 mph NW12.2 kmh NW 13.0 mph20.9 kmh 29.57 in1001.4 mb 0.00 in0.0 mm 0.00 in0.0 mm 0.00 in0.0 mm
05:20 PM 77.2°F25.1°C 59.3°F15.2°C 54% 17.4 mph N28.0 kmh N 29.8 mph48.0 kmh 29.53 in1000.0 mb 0.00 in0.0 mm 0.00 in0.0 mm 0.00 in0.0 mm
05:30 PM 76.8°F24.9°C 59.5°F15.3°C 55% 7.6 mph NW12.2 kmh NW 29.8 mph48.0 kmh 29.55 in1000.7 mb 0.00 in0.0 mm 0.00 in0.0 mm 0.00 in0.0 mm
05:40 PM 77.0°F25.0°C 59.1°F15.1°C 54% 6.9 mph N11.1 kmh N 14.5 mph23.3 kmh 29.56 in1001.0 mb 0.00 in0.0 mm 0.00 in0.0 mm 0.00 in0.0 mm
05:50 PM 77.0°F25.0°C 58.6°F14.8°C 53% 7.6 mph NNW12.2 kmh NNW 13.6 mph21.9 kmh 29.57 in1001.4 mb 0.00 in0.0 mm 0.00 in0.0 mm 0.00 in0.0 mm
06:00 PM 76.8°F24.9°C 59.0°F15.0°C 54% 6.0 mph N9.7 kmh N 13.0 mph20.9 kmh 29.56 in1001.0 mb 0.00 in0.0 mm 0.00 in0.0 mm 0.00 in0.0 mm
06:10 PM 76.6°F24.8°C 58.3°F14.6°C 53% 6.0 mph NW9.7 kmh NW 11.4 mph18.3 kmh 29.56 in1001.0 mb 0.00 in0.0 mm 0.00 in0.0 mm 0.00 in0.0 mm
06:20 PM 76.8°F24.9°C 58.4°F14.7°C 53% 5.4 mph NNW8.7 kmh NNW 9.8 mph15.8 kmh 29.57 in1001.4 mb 0.00 in0.0 mm 0.00 in0.0 mm 0.00 in0.0 mm
06:30 PM 76.8°F24.9°C 57.9°F14.4°C 52% 4.5 mph NW7.2 kmh NW 10.7 mph17.2 kmh 29.57 in1001.4 mb 0.00 in0.0 mm 0.00 in0.0 mm 0.00 in0.0 mm
06:40 PM 76.8°F24.9°C 56.8°F13.8°C 50% 0.7 mph WNW1.1 kmh WNW 6.9 mph11.1 kmh 29.57 in1001.4 mb 0.00 in0.0 mm 0.00 in0.0 mm 0.00 in0.0 mm
06:50 PM 76.8°F24.9°C 56.8°F13.8°C 50% 0.7 mph N1.1 kmh N 5.4 mph8.7 kmh 29.58 in1001.7 mb 0.00 in0.0 mm 0.00 in0.0 mm 0.00 in0.0 mm
07:00 PM 79.0°F26.1°C 55.2°F12.9°C 44% 3.1 mph NNE5.0 kmh NNE 7.6 mph12.2 kmh 29.59 in1002.0 mb 0.00 in0.0 mm 0.00 in0.0 mm 0.00 in0.0 mm
07:10 PM 80.1°F26.7°C 56.2°F13.4°C 44% Calm Calm 4.5 mph7.2 kmh 29.59 in1002.0 mb 0.00 in0.0 mm 0.00 in0.0 mm 0.00 in0.0 mm
07:20 PM 79.2°F26.2°C 55.4°F13.0°C 44% Calm Calm 0.7 mph1.1 kmh 29.59 in1002.0 mb 0.00 in0.0 mm 0.00 in0.0 mm 0.00 in0.0 mm
07:30 PM 75.2°F24.0°C 55.3°F12.9°C 50% Calm Calm 3.8 mph6.1 kmh 29.60 in1002.4 mb 0.00 in0.0 mm 0.00 in0.0 mm 0.00 in0.0 mm
07:40 PM 73.6°F23.1°C 56.4°F13.6°C 55% Calm Calm 1.6 mph2.6 kmh 29.60 in1002.4 mb 0.00 in0.0 mm 0.00 in0.0 mm 0.00 in0.0 mm
07:50 PM 72.1°F22.3°C 57.0°F13.9°C 59% Calm Calm -- 29.61 in1002.7 mb 0.00 in0.0 mm 0.00 in0.0 mm 0.00 in0.0 mm
08:00 PM 70.9°F21.6°C 58.1°F14.5°C 64% Calm Calm 2.2 mph3.5 kmh 29.61 in1002.7 mb 0.00 in0.0 mm 0.00 in0.0 mm 0.00 in0.0 mm
08:10 PM 70.2°F21.2°C 58.3°F14.6°C 66% 2.2 mph E3.5 kmh E 4.5 mph7.2 kmh 29.62 in1003.0 mb 0.00 in0.0 mm 0.00 in0.0 mm 0.00 in0.0 mm
08:20 PM 70.3°F21.3°C 60.5°F15.8°C 71% 1.6 mph WNW2.6 kmh WNW 3.8 mph6.1 kmh 29.62 in1003.0 mb 0.00 in0.0 mm 0.00 in0.0 mm 0.00 in0.0 mm
08:30 PM 69.4°F20.8°C 59.7°F15.4°C 71% 1.6 mph WSW2.6 kmh WSW 3.1 mph5.0 kmh 29.63 in1003.4 mb 0.00 in0.0 mm 0.00 in0.0 mm 0.00 in0.0 mm
08:40 PM 68.9°F20.5°C 59.1°F15.1°C 71% 3.8 mph N6.1 kmh N 5.4 mph8.7 kmh 29.63 in1003.4 mb 0.00 in0.0 mm 0.00 in0.0 mm 0.00 in0.0 mm
08:50 PM 68.5°F20.3°C 58.0°F14.4°C 69% 0.7 mph N1.1 kmh N 5.4 mph8.7 kmh 29.64 in1003.7 mb 0.00 in0.0 mm 0.00 in0.0 mm 0.00 in0.0 mm
09:00 PM 68.0°F20.0°C 57.1°F13.9°C 68% Calm Calm 3.1 mph5.0 kmh 29.65 in1004.1 mb 0.00 in0.0 mm 0.00 in0.0 mm 0.00 in0.0 mm
09:10 PM 66.9°F19.4°C 56.4°F13.6°C 69% 2.2 mph SW3.5 kmh SW 3.8 mph6.1 kmh 29.65 in1004.1 mb 0.00 in0.0 mm 0.00 in0.0 mm 0.00 in0.0 mm
09:20 PM 67.1°F19.5°C 56.2°F13.4°C 68% Calm Calm 4.5 mph7.2 kmh 29.66 in1004.4 mb 0.00 in0.0 mm 0.00 in0.0 mm 0.00 in0.0 mm
09:30 PM 66.6°F19.2°C 55.7°F13.2°C 68% Calm Calm 3.1 mph5.0 kmh 29.67 in1004.7 mb 0.00 in0.0 mm 0.00 in0.0 mm 0.00 in0.0 mm
09:40 PM 66.2°F19.0°C 55.8°F13.2°C 69% 1.6 mph NW2.6 kmh NW 3.1 mph5.0 kmh 29.67 in1004.7 mb 0.00 in0.0 mm 0.00 in0.0 mm 0.00 in0.0 mm
09:50 PM 66.0°F18.9°C 56.8°F13.8°C 72% 0.7 mph NW1.1 kmh NW 3.8 mph6.1 kmh 29.66 in1004.4 mb 0.00 in0.0 mm 0.00 in0.0 mm 0.00 in0.0 mm
10:00 PM 65.7°F18.7°C 56.4°F13.6°C 72% 1.6 mph NW2.6 kmh NW 3.8 mph6.1 kmh 29.67 in1004.7 mb 0.00 in0.0 mm 0.00 in0.0 mm 0.00 in0.0 mm
10:10 PM 64.8°F18.2°C 55.2°F12.9°C 71% 0.7 mph NNE1.1 kmh NNE 3.1 mph5.0 kmh 29.68 in1005.1 mb 0.00 in0.0 mm 0.00 in0.0 mm 0.00 in0.0 mm
10:20 PM 65.3°F18.5°C 55.7°F13.2°C 71% 0.7 mph NE1.1 kmh NE 2.2 mph3.5 kmh 29.68 in1005.1 mb 0.00 in0.0 mm 0.00 in0.0 mm 0.00 in0.0 mm
10:30 PM 64.6°F18.1°C 55.4°F13.0°C 72% 0.7 mph NW1.1 kmh NW 3.1 mph5.0 kmh 29.68 in1005.1 mb 0.00 in0.0 mm 0.00 in0.0 mm 0.00 in0.0 mm
10:40 PM 64.0°F17.8°C 55.2°F12.9°C 73% 2.2 mph NE3.5 kmh NE 3.1 mph5.0 kmh 29.68 in1005.1 mb 0.00 in0.0 mm 0.00 in0.0 mm 0.00 in0.0 mm
10:50 PM 63.7°F17.6°C 55.6°F13.1°C 75% 1.6 mph NW2.6 kmh NW 3.8 mph6.1 kmh 29.69 in1005.4 mb 0.00 in0.0 mm 0.00 in0.0 mm 0.00 in0.0 mm
11:00 PM 63.1°F17.3°C 55.5°F13.1°C 76% 1.6 mph NNE2.6 kmh NNE 2.2 mph3.5 kmh 29.69 in1005.4 mb 0.00 in0.0 mm 0.00 in0.0 mm 0.00 in0.0 mm
11:10 PM 63.3°F17.4°C 55.6°F13.1°C 76% 1.6 mph N2.6 kmh N 3.1 mph5.0 kmh 29.69 in1005.4 mb 0.00 in0.0 mm 0.00 in0.0 mm 0.00 in0.0 mm
11:20 PM 62.4°F16.9°C 55.1°F12.8°C 77% Calm Calm 2.2 mph3.5 kmh 29.70 in1005.8 mb 0.00 in0.0 mm 0.00 in0.0 mm 0.00 in0.0 mm
11:30 PM 61.9°F16.6°C 55.3°F12.9°C 79% 1.6 mph NW2.6 kmh NW 2.2 mph3.5 kmh 29.70 in1005.8 mb 0.00 in0.0 mm 0.00 in0.0 mm 0.00 in0.0 mm
11:40 PM 61.7°F16.5°C 55.5°F13.1°C 80% Calm Calm 4.5 mph7.2 kmh 29.70 in1005.8 mb 0.00 in0.0 mm 0.00 in0.0 mm 0.00 in0.0 mm
11:50 PM 61.9°F16.6°C 55.3°F12.9°C 79% 2.2 mph NW3.5 kmh NW 3.1 mph5.0 kmh 29.70 in1005.8 mb 0.00 in0.0 mm 0.00 in0.0 mm 0.00 in0.0 mm